Time;durP1;ratioP1;P1;durP2;ratioP2;P2;SDS_P1;SDS_P2;PMS_P1;PMS_P2;Temp;Humidity;BMP_temperature;BMP_pressure;BME280_temperature;BME280_humidity;BME280_pressure;Samples;Min_cycle;Max_cycle;Signal;HPM_P1;HPM_P2
2023/08/06 00:01:40;;;;;;;8.00;5.43;;;;;;;;;;5052397;28;20052;-65
2023/08/06 00:04:06;;;;;;;7.40;5.47;;;;;;;;;;5051308;28;20377;-65
2023/08/06 00:06:32;;;;;;;9.05;5.07;;;;;;;;;;5053242;28;20033;-66
2023/08/06 00:08:58;;;;;;;7.45;5.68;;;;;;;;;;5053235;28;21436;-66
2023/08/06 00:11:24;;;;;;;7.82;5.30;;;;;;;;;;5052525;28;20075;-66
2023/08/06 00:13:50;;;;;;;7.60;5.18;;;;;;;;;;5052814;28;20868;-65
2023/08/06 00:16:16;;;;;;;7.38;5.50;;;;;;;;;;5036584;28;21049;-65
2023/08/06 00:18:43;;;;;;;7.15;5.20;;;;;;;;;;5052444;28;20036;-66
2023/08/06 00:21:09;;;;;;;9.40;5.65;;;;;;;;;;5053309;28;20032;-66
2023/08/06 00:23:35;;;;;;;9.98;4.95;;;;;;;;;;5052650;28;20028;-66
2023/08/06 00:26:01;;;;;;;8.27;5.90;;;;;;;;;;5052521;28;20036;-66
2023/08/06 00:28:27;;;;;;;8.57;6.15;;;;;;;;;;5052787;28;20028;-66
2023/08/06 00:30:56;;;;;;;10.63;6.20;;;;;;;;;;5051682;28;20085;-66
2023/08/06 00:33:23;;;;;;;9.18;4.95;;;;;;;;;;5053966;28;20128;-66
2023/08/06 00:35:49;;;;;;;8.85;5.70;;;;;;;;;;5051259;28;20127;-66
2023/08/06 00:38:15;;;;;;;8.88;4.90;;;;;;;;;;5052758;28;20021;-66
2023/08/06 00:40:41;;;;;;;13.23;5.65;;;;;;;;;;5052018;28;20756;-66
2023/08/06 00:43:07;;;;;;;7.72;5.53;;;;;;;;;;5052624;28;20103;-66
2023/08/06 00:45:37;;;;;;;12.85;5.10;;;;;;;;;;5052556;28;20032;-65
2023/08/06 00:48:04;;;;;;;7.57;4.85;;;;;;;;;;5052348;28;20105;-65
2023/08/06 00:50:30;;;;;;;7.15;5.18;;;;;;;;;;5053733;28;20111;-65
2023/08/06 00:52:56;;;;;;;7.88;5.55;;;;;;;;;;5052266;28;20496;-66
2023/08/06 00:55:23;;;;;;;8.30;5.28;;;;;;;;;;5052168;28;21063;-66
2023/08/06 00:57:51;;;;;;;8.15;5.00;;;;;;;;;;5033827;28;21716;-66
2023/08/06 01:00:17;;;;;;;11.02;5.72;;;;;;;;;;5052504;28;20077;-65
2023/08/06 01:02:43;;;;;;;8.48;5.30;;;;;;;;;;5052852;28;20119;-66
2023/08/06 01:05:09;;;;;;;10.32;5.70;;;;;;;;;;5050367;28;20048;-66
2023/08/06 01:08:04;;;;;;;8.32;5.95;;;;;;;;;;5050190;28;20036;-65
2023/08/06 01:10:49;;;;;;;9.05;5.80;;;;;;;;;;5029039;28;20139;-65
2023/08/06 01:13:28;;;;;;;7.90;5.57;;;;;;;;;;5051260;28;20135;-65
2023/08/06 01:15:57;;;;;;;8.20;5.80;;;;;;;;;;5050980;28;20039;-66
2023/08/06 01:18:23;;;;;;;7.35;5.43;;;;;;;;;;5051124;28;20032;-65
2023/08/06 01:20:52;;;;;;;8.45;5.88;;;;;;;;;;5052340;28;20510;-65
2023/08/06 01:23:19;;;;;;;9.38;6.13;;;;;;;;;;5052511;28;20044;-65
2023/08/06 01:25:57;;;;;;;8.02;5.97;;;;;;;;;;5051891;28;20036;-66
2023/08/06 01:28:37;;;;;;;8.27;6.35;;;;;;;;;;5051901;28;20044;-65
2023/08/06 01:31:05;;;;;;;11.55;7.10;;;;;;;;;;5050842;28;20652;-65
2023/08/06 01:33:33;;;;;;;11.85;7.20;;;;;;;;;;5052909;28;20025;-65
2023/08/06 01:35:59;;;;;;;9.80;6.50;;;;;;;;;;5051397;28;20055;-66
2023/08/06 01:38:28;;;;;;;11.40;6.32;;;;;;;;;;5051850;28;20036;-65
2023/08/06 01:40:54;;;;;;;10.25;7.13;;;;;;;;;;5051366;28;21716;-65
2023/08/06 01:43:20;;;;;;;10.07;6.50;;;;;;;;;;5052103;28;20082;-65
2023/08/06 01:45:46;;;;;;;9.77;6.65;;;;;;;;;;5050851;28;20036;-65
2023/08/06 01:48:12;;;;;;;9.60;6.90;;;;;;;;;;5051605;28;20025;-65
2023/08/06 01:50:38;;;;;;;11.30;6.90;;;;;;;;;;5051150;28;20036;-65
2023/08/06 01:53:04;;;;;;;12.13;8.00;;;;;;;;;;5051868;28;20040;-65
2023/08/06 01:55:30;;;;;;;11.38;8.00;;;;;;;;;;5052038;28;21166;-65
2023/08/06 01:57:56;;;;;;;10.85;7.50;;;;;;;;;;5057514;28;20028;-65
2023/08/06 02:00:22;;;;;;;9.45;7.25;;;;;;;;;;5058234;28;20040;-65
2023/08/06 02:02:48;;;;;;;11.07;7.70;;;;;;;;;;5058166;28;20048;-65
2023/08/06 02:05:14;;;;;;;13.15;7.70;;;;;;;;;;5057459;28;20167;-66
2023/08/06 02:07:41;;;;;;;12.38;8.75;;;;;;;;;;5057246;28;20036;-65
2023/08/06 02:10:07;;;;;;;11.93;7.53;;;;;;;;;;5058017;28;20060;-65
2023/08/06 02:12:33;;;;;;;13.50;6.95;;;;;;;;;;5059076;28;20609;-65
2023/08/06 02:14:59;;;;;;;11.48;7.75;;;;;;;;;;5043813;28;20676;-66
2023/08/06 02:17:25;;;;;;;11.43;7.88;;;;;;;;;;5058812;28;21035;-65
2023/08/06 02:19:51;;;;;;;15.45;8.77;;;;;;;;;;5057819;28;20036;-65
2023/08/06 02:22:17;;;;;;;12.15;8.60;;;;;;;;;;5058027;28;20024;-65
2023/08/06 02:24:43;;;;;;;10.32;8.15;;;;;;;;;;5058246;28;20094;-65
2023/08/06 02:27:09;;;;;;;10.88;8.45;;;;;;;;;;5057862;28;20136;-65
2023/08/06 02:29:35;;;;;;;13.15;8.75;;;;;;;;;;5057951;28;20156;-65
2023/08/06 02:32:02;;;;;;;11.38;8.43;;;;;;;;;;5057504;28;20051;-65
2023/08/06 02:34:28;;;;;;;12.90;8.68;;;;;;;;;;5057660;28;20034;-65
2023/08/06 02:36:54;;;;;;;14.18;9.00;;;;;;;;;;5056957;28;20040;-65
2023/08/06 02:39:20;;;;;;;11.27;8.77;;;;;;;;;;5057420;28;20028;-65
2023/08/06 02:41:46;;;;;;;10.95;8.38;;;;;;;;;;5057560;28;20400;-65
2023/08/06 02:44:12;;;;;;;13.10;9.30;;;;;;;;;;5057638;28;20332;-65
2023/08/06 02:46:38;;;;;;;10.93;9.02;;;;;;;;;;5058091;28;20446;-65
2023/08/06 02:49:04;;;;;;;10.45;9.02;;;;;;;;;;5057579;28;20039;-66
2023/08/06 02:51:30;;;;;;;10.77;7.70;;;;;;;;;;5058327;28;20063;-65
2023/08/06 02:53:56;;;;;;;11.57;8.57;;;;;;;;;;5058075;28;20040;-65
2023/08/06 02:56:22;;;;;;;12.85;8.27;;;;;;;;;;5055684;28;20037;-65
2023/08/06 02:58:48;;;;;;;11.52;9.05;;;;;;;;;;5057491;28;20039;-66
2023/08/06 03:01:14;;;;;;;11.00;8.68;;;;;;;;;;5057266;28;20047;-65
2023/08/06 03:03:40;;;;;;;10.40;8.38;;;;;;;;;;5058302;28;20045;-66
2023/08/06 03:06:06;;;;;;;12.65;7.85;;;;;;;;;;5057373;28;20043;-65
2023/08/06 03:08:36;;;;;;;10.60;7.80;;;;;;;;;;5054109;28;20054;-65
2023/08/06 03:11:02;;;;;;;10.60;7.85;;;;;;;;;;5052130;28;20032;-66
2023/08/06 03:13:28;;;;;;;16.10;8.95;;;;;;;;;;5054026;28;20041;-65
2023/08/06 03:16:01;;;;;;;12.93;8.20;;;;;;;;;;5054165;28;20032;-65
2023/08/06 03:18:27;;;;;;;12.98;8.43;;;;;;;;;;5054014;28;20047;-65
2023/08/06 03:20:53;;;;;;;13.40;8.80;;;;;;;;;;5054702;28;20040;-65
2023/08/06 03:23:19;;;;;;;12.15;8.68;;;;;;;;;;5053801;28;20032;-65
2023/08/06 03:25:46;;;;;;;10.32;8.18;;;;;;;;;;5054471;28;20467;-65
2023/08/06 03:28:12;;;;;;;9.90;8.07;;;;;;;;;;5053835;28;20644;-65
2023/08/06 03:30:38;;;;;;;9.23;7.50;;;;;;;;;;5053283;28;20036;-65
2023/08/06 03:33:04;;;;;;;10.07;7.38;;;;;;;;;;5035704;28;20028;-65
2023/08/06 03:35:30;;;;;;;12.15;8.35;;;;;;;;;;5054002;28;20536;-65
2023/08/06 03:37:56;;;;;;;12.02;8.30;;;;;;;;;;5053591;28;20028;-65
2023/08/06 03:40:22;;;;;;;10.60;8.13;;;;;;;;;;5053685;28;20036;-64
2023/08/06 03:42:48;;;;;;;12.27;8.48;;;;;;;;;;5053029;28;20033;-65
2023/08/06 03:45:14;;;;;;;9.63;7.32;;;;;;;;;;5052910;28;20033;-65
2023/08/06 03:47:40;;;;;;;9.98;7.70;;;;;;;;;;5034476;28;20049;-65
2023/08/06 03:50:06;;;;;;;11.52;7.90;;;;;;;;;;5054344;28;20633;-64
2023/08/06 03:52:33;;;;;;;11.98;8.32;;;;;;;;;;5053001;28;20024;-65
2023/08/06 03:54:59;;;;;;;12.57;8.70;;;;;;;;;;5053998;28;20036;-65
2023/08/06 03:57:25;;;;;;;10.95;8.23;;;;;;;;;;5053878;28;20036;-65
2023/08/06 03:59:51;;;;;;;10.93;8.18;;;;;;;;;;5053522;28;20115;-65
2023/08/06 04:02:17;;;;;;;9.60;7.97;;;;;;;;;;5053246;28;20024;-65
2023/08/06 04:04:43;;;;;;;11.73;8.95;;;;;;;;;;5052686;28;20053;-65
2023/08/06 04:07:09;;;;;;;10.65;8.02;;;;;;;;;;5053468;28;20423;-65
2023/08/06 04:09:51;;;;;;;12.77;8.55;;;;;;;;;;5053252;28;20147;-65
2023/08/06 04:12:17;;;;;;;10.27;8.05;;;;;;;;;;5052445;28;20067;-65
2023/08/06 04:14:43;;;;;;;11.30;7.93;;;;;;;;;;5052998;28;20040;-65
2023/08/06 04:17:09;;;;;;;10.52;7.30;;;;;;;;;;5052349;28;20036;-65
2023/08/06 04:19:35;;;;;;;10.85;8.32;;;;;;;;;;5053298;28;20063;-65
2023/08/06 04:22:01;;;;;;;10.50;7.60;;;;;;;;;;5052779;28;20089;-66
2023/08/06 04:24:27;;;;;;;9.95;7.22;;;;;;;;;;5052674;28;20059;-65
2023/08/06 04:26:53;;;;;;;10.30;8.65;;;;;;;;;;5052030;28;20082;-65
2023/08/06 04:29:19;;;;;;;10.90;9.10;;;;;;;;;;5052846;28;20122;-66
2023/08/06 04:31:45;;;;;;;13.05;8.73;;;;;;;;;;5053059;28;20044;-65
2023/08/06 04:34:11;;;;;;;9.77;7.38;;;;;;;;;;5052015;28;20028;-65
2023/08/06 04:36:38;;;;;;;9.65;6.90;;;;;;;;;;5052602;28;20028;-65
2023/08/06 04:39:04;;;;;;;10.48;8.00;;;;;;;;;;5051639;28;20529;-65
2023/08/06 04:41:31;;;;;;;12.50;8.30;;;;;;;;;;5052972;28;20032;-65
2023/08/06 04:44:00;;;;;;;9.40;6.65;;;;;;;;;;5052590;28;20024;-65
2023/08/06 04:46:26;;;;;;;9.75;6.95;;;;;;;;;;5051371;28;20036;-65
2023/08/06 04:48:52;;;;;;;8.63;6.40;;;;;;;;;;5052841;28;20044;-66
2023/08/06 04:51:18;;;;;;;10.75;7.05;;;;;;;;;;5051899;28;20040;-65
2023/08/06 04:53:44;;;;;;;12.07;6.70;;;;;;;;;;5053560;28;20047;-65
2023/08/06 04:56:10;;;;;;;10.45;7.30;;;;;;;;;;5051151;28;20036;-65
2023/08/06 04:58:36;;;;;;;8.82;6.72;;;;;;;;;;5052181;28;20078;-65
2023/08/06 05:01:02;;;;;;;8.82;6.32;;;;;;;;;;5051813;28;20036;-65
2023/08/06 05:03:28;;;;;;;9.20;6.88;;;;;;;;;;5051706;28;20724;-65
2023/08/06 05:05:55;;;;;;;11.13;6.63;;;;;;;;;;5053007;28;20452;-65
2023/08/06 05:08:21;;;;;;;9.63;6.20;;;;;;;;;;5051746;28;20553;-65
2023/08/06 05:10:47;;;;;;;8.93;5.70;;;;;;;;;;5052718;28;20039;-65
2023/08/06 05:13:13;;;;;;;9.05;6.75;;;;;;;;;;5051576;28;20646;-65
2023/08/06 05:15:42;;;;;;;10.35;6.68;;;;;;;;;;5052105;28;20185;-65
2023/08/06 05:18:08;;;;;;;9.02;6.57;;;;;;;;;;5034970;28;20055;-65
2023/08/06 05:20:37;;;;;;;11.52;6.35;;;;;;;;;;5051791;28;20036;-65
2023/08/06 05:23:03;;;;;;;7.38;5.72;;;;;;;;;;5052392;28;20040;-65
2023/08/06 05:25:29;;;;;;;9.30;6.10;;;;;;;;;;5051457;28;20042;-65
2023/08/06 05:27:55;;;;;;;10.85;6.55;;;;;;;;;;5051835;28;20843;-65
2023/08/06 05:30:21;;;;;;;8.35;6.88;;;;;;;;;;5037286;28;20047;-65
2023/08/06 05:32:47;;;;;;;7.40;6.15;;;;;;;;;;5051174;28;20036;-65
2023/08/06 05:35:13;;;;;;;9.15;6.88;;;;;;;;;;5051790;28;20040;-66
2023/08/06 05:37:40;;;;;;;9.88;7.05;;;;;;;;;;5051391;28;20111;-65
2023/08/06 05:40:06;;;;;;;9.77;6.32;;;;;;;;;;5051202;28;20036;-65
2023/08/06 05:42:32;;;;;;;8.38;6.03;;;;;;;;;;5051006;28;20425;-65
2023/08/06 05:44:58;;;;;;;10.20;6.25;;;;;;;;;;5051746;28;20369;-65
2023/08/06 05:47:24;;;;;;;12.18;7.20;;;;;;;;;;5052029;28;20670;-65
2023/08/06 05:49:50;;;;;;;10.20;6.70;;;;;;;;;;5037714;28;21081;-65
2023/08/06 05:52:16;;;;;;;9.40;5.50;;;;;;;;;;5052548;28;20460;-65
2023/08/06 05:54:42;;;;;;;8.60;6.82;;;;;;;;;;5051276;28;20123;-65
2023/08/06 05:57:08;;;;;;;8.82;6.35;;;;;;;;;;5051563;28;20064;-66
2023/08/06 05:59:34;;;;;;;8.85;6.70;;;;;;;;;;5051131;28;21029;-65
2023/08/06 06:02:00;;;;;;;9.65;6.97;;;;;;;;;;5051204;28;21803;-65
2023/08/06 06:04:26;;;;;;;9.90;6.75;;;;;;;;;;5051560;28;20048;-65
2023/08/06 06:06:52;;;;;;;10.02;6.47;;;;;;;;;;5050948;28;20499;-65
2023/08/06 06:09:18;;;;;;;9.25;6.72;;;;;;;;;;5049752;28;20476;-66
2023/08/06 06:11:44;;;;;;;10.63;5.93;;;;;;;;;;5049591;28;21659;-65
2023/08/06 06:14:11;;;;;;;9.10;6.72;;;;;;;;;;5049594;28;20056;-65
2023/08/06 06:16:37;;;;;;;10.02;6.50;;;;;;;;;;5049317;28;20050;-65
2023/08/06 06:19:03;;;;;;;10.30;6.60;;;;;;;;;;5050198;28;20475;-65
2023/08/06 06:21:29;;;;;;;8.52;6.68;;;;;;;;;;5049834;28;20652;-65
2023/08/06 06:23:56;;;;;;;11.70;7.00;;;;;;;;;;5049906;28;20035;-65
2023/08/06 06:26:22;;;;;;;9.70;6.68;;;;;;;;;;5051958;28;20738;-66
2023/08/06 06:28:48;;;;;;;10.05;6.68;;;;;;;;;;5050620;28;20421;-65
2023/08/06 06:31:14;;;;;;;11.25;6.60;;;;;;;;;;5050531;28;20060;-65
2023/08/06 06:33:40;;;;;;;9.63;6.47;;;;;;;;;;5050191;28;20041;-65
2023/08/06 06:36:07;;;;;;;8.60;6.53;;;;;;;;;;5049307;28;20036;-66
2023/08/06 06:38:34;;;;;;;8.85;6.18;;;;;;;;;;5049260;28;20032;-67
2023/08/06 06:41:00;;;;;;;10.23;6.47;;;;;;;;;;5049418;28;20025;-68
2023/08/06 06:43:26;;;;;;;9.07;6.82;;;;;;;;;;5051526;28;20507;-66
2023/08/06 06:45:59;;;;;;;9.65;6.30;;;;;;;;;;5053450;28;20472;-65
2023/08/06 06:48:29;;;;;;;11.23;6.65;;;;;;;;;;5054013;28;20039;-66
2023/08/06 06:50:55;;;;;;;8.55;7.28;;;;;;;;;;5037504;28;20024;-66
2023/08/06 06:53:27;;;;;;;10.00;7.22;;;;;;;;;;5054217;28;20097;-65
2023/08/06 06:55:53;;;;;;;9.45;6.65;;;;;;;;;;5054935;28;20028;-66
2023/08/06 06:58:19;;;;;;;7.80;6.10;;;;;;;;;;5053919;28;20071;-65
2023/08/06 07:00:45;;;;;;;8.15;6.00;;;;;;;;;;5054801;28;20071;-65
2023/08/06 07:03:12;;;;;;;9.57;6.65;;;;;;;;;;5054096;28;20024;-65
2023/08/06 07:05:38;;;;;;;8.23;5.93;;;;;;;;;;5054192;28;21318;-66
2023/08/06 07:08:04;;;;;;;16.08;6.00;;;;;;;;;;5054311;28;20095;-65
2023/08/06 07:10:30;;;;;;;8.82;6.22;;;;;;;;;;5036324;28;20036;-65
2023/08/06 07:12:56;;;;;;;8.90;5.72;;;;;;;;;;5054731;28;20036;-65
2023/08/06 07:15:22;;;;;;;8.00;5.20;;;;;;;;;;5053989;28;20021;-65
2023/08/06 07:17:48;;;;;;;8.70;5.50;;;;;;;;;;5053894;28;20036;-66
2023/08/06 07:20:14;;;;;;;8.48;5.32;;;;;;;;;;5053722;28;20086;-65
2023/08/06 07:22:40;;;;;;;7.07;5.07;;;;;;;;;;5054145;28;20721;-65
2023/08/06 07:25:06;;;;;;;6.57;5.15;;;;;;;;;;5054266;28;20172;-65
2023/08/06 07:27:33;;;;;;;7.65;5.15;;;;;;;;;;5054129;28;20037;-65
2023/08/06 07:29:59;;;;;;;11.60;5.07;;;;;;;;;;5054533;28;20024;-65
2023/08/06 07:32:28;;;;;;;7.50;4.57;;;;;;;;;;5037551;28;20068;-65
2023/08/06 07:34:59;;;;;;;10.98;5.57;;;;;;;;;;5053435;28;20024;-65
2023/08/06 07:37:25;;;;;;;6.50;4.38;;;;;;;;;;5036500;28;20037;-65
2023/08/06 07:39:51;;;;;;;6.53;4.95;;;;;;;;;;5036323;28;20427;-66
2023/08/06 07:42:20;;;;;;;7.07;4.57;;;;;;;;;;5053559;28;20062;-66
2023/08/06 07:44:50;;;;;;;7.55;4.68;;;;;;;;;;5053987;28;20296;-66
2023/08/06 07:47:16;;;;;;;7.75;4.60;;;;;;;;;;5053625;28;20127;-65
2023/08/06 07:49:42;;;;;;;7.43;4.75;;;;;;;;;;5054061;28;20052;-66
2023/08/06 07:52:08;;;;;;;7.32;4.80;;;;;;;;;;5052040;28;20071;-65
2023/08/06 07:54:35;;;;;;;7.03;4.78;;;;;;;;;;5051551;28;20113;-65
2023/08/06 07:57:01;;;;;;;6.13;4.53;;;;;;;;;;5051336;28;20107;-65
2023/08/06 07:59:28;;;;;;;6.32;4.32;;;;;;;;;;5035083;28;20057;-65
2023/08/06 08:01:54;;;;;;;7.35;4.03;;;;;;;;;;5032106;28;20033;-65
2023/08/06 08:04:21;;;;;;;5.32;3.67;;;;;;;;;;5033464;28;20492;-66
2023/08/06 08:06:48;;;;;;;6.97;4.43;;;;;;;;;;5050622;28;20088;-66
2023/08/06 08:09:18;;;;;;;7.63;3.90;;;;;;;;;;5051976;28;21061;-65
2023/08/06 08:11:47;;;;;;;7.47;3.97;;;;;;;;;;5051743;28;20028;-65
2023/08/06 08:14:13;;;;;;;5.20;3.13;;;;;;;;;;5050794;28;20239;-66
2023/08/06 08:16:42;;;;;;;6.32;3.20;;;;;;;;;;5051855;28;20086;-66
2023/08/06 08:19:11;;;;;;;6.88;4.00;;;;;;;;;;5052006;28;20471;-65
2023/08/06 08:21:41;;;;;;;4.30;2.70;;;;;;;;;;5051733;28;20035;-66
2023/08/06 08:24:07;;;;;;;5.90;3.00;;;;;;;;;;5051907;28;20644;-66
2023/08/06 08:26:34;;;;;;;5.07;2.90;;;;;;;;;;5052026;28;20167;-66
2023/08/06 08:29:00;;;;;;;7.38;3.17;;;;;;;;;;5051316;28;20035;-66
2023/08/06 08:31:28;;;;;;;7.68;2.50;;;;;;;;;;5051545;28;20051;-66
2023/08/06 08:33:55;;;;;;;5.82;3.60;;;;;;;;;;5033205;28;20032;-66
2023/08/06 08:36:21;;;;;;;6.32;2.67;;;;;;;;;;5032635;28;20120;-66
2023/08/06 08:38:47;;;;;;;4.70;2.45;;;;;;;;;;5051335;28;20036;-66
2023/08/06 08:41:14;;;;;;;5.18;2.72;;;;;;;;;;5051865;28;20786;-66
2023/08/06 08:43:41;;;;;;;3.60;2.13;;;;;;;;;;5051660;28;20051;-66
2023/08/06 08:46:09;;;;;;;5.60;2.55;;;;;;;;;;5033133;28;20044;-66
2023/08/06 08:48:36;;;;;;;5.40;2.70;;;;;;;;;;5033186;28;20043;-66
2023/08/06 08:51:07;;;;;;;4.53;2.05;;;;;;;;;;5050112;28;20036;-66
2023/08/06 08:53:34;;;;;;;4.40;2.40;;;;;;;;;;5050857;28;20036;-66
2023/08/06 08:56:00;;;;;;;4.28;2.13;;;;;;;;;;5050893;28;20033;-66
2023/08/06 08:58:26;;;;;;;4.68;2.45;;;;;;;;;;5051425;28;20041;-66
2023/08/06 09:00:52;;;;;;;4.82;2.20;;;;;;;;;;5052116;28;20056;-66
2023/08/06 09:03:19;;;;;;;4.13;2.10;;;;;;;;;;5051761;28;20041;-66
2023/08/06 09:05:45;;;;;;;5.85;2.53;;;;;;;;;;5049711;28;20040;-66
2023/08/06 09:08:12;;;;;;;3.88;2.22;;;;;;;;;;5050356;28;20399;-67
2023/08/06 09:10:39;;;;;;;4.47;2.50;;;;;;;;;;5049817;28;20567;-66
2023/08/06 09:13:06;;;;;;;4.35;2.22;;;;;;;;;;5051094;28;20087;-67
2023/08/06 09:15:33;;;;;;;4.72;2.63;;;;;;;;;;5048425;28;21855;-66
2023/08/06 09:17:59;;;;;;;5.68;2.45;;;;;;;;;;5032715;28;20050;-66
2023/08/06 09:20:25;;;;;;;5.70;2.20;;;;;;;;;;5052044;28;20025;-66
2023/08/06 09:22:54;;;;;;;4.30;2.53;;;;;;;;;;5051665;28;21358;-66
2023/08/06 09:25:22;;;;;;;5.07;2.17;;;;;;;;;;5051388;28;20131;-66
2023/08/06 09:27:48;;;;;;;5.03;2.05;;;;;;;;;;5051050;28;20456;-66
2023/08/06 09:30:29;;;;;;;6.10;2.65;;;;;;;;;;5052275;28;20047;-66
2023/08/06 09:32:55;;;;;;;5.95;2.50;;;;;;;;;;5051628;28;20036;-66
2023/08/06 09:35:21;;;;;;;5.55;2.40;;;;;;;;;;5051835;28;20579;-66
2023/08/06 09:37:50;;;;;;;4.10;2.08;;;;;;;;;;5051653;28;20064;-66
2023/08/06 09:40:26;;;;;;;5.45;2.55;;;;;;;;;;5051272;28;20047;-66
2023/08/06 09:42:52;;;;;;;5.38;2.22;;;;;;;;;;5051276;28;20024;-66
2023/08/06 09:45:18;;;;;;;6.63;2.90;;;;;;;;;;5033643;28;20081;-66
2023/08/06 09:47:44;;;;;;;5.43;2.72;;;;;;;;;;5052258;28;20032;-66
2023/08/06 09:50:20;;;;;;;4.90;2.45;;;;;;;;;;5051503;28;20047;-66
2023/08/06 09:52:48;;;;;;;3.85;1.98;;;;;;;;;;5051819;28;20545;-66
2023/08/06 09:55:14;;;;;;;4.82;1.70;;;;;;;;;;5050576;28;20498;-66
2023/08/06 09:57:41;;;;;;;5.68;2.38;;;;;;;;;;5051123;28;20032;-66
2023/08/06 10:00:09;;;;;;;3.65;1.90;;;;;;;;;;5051363;28;20681;-66
2023/08/06 10:02:36;;;;;;;5.65;1.85;;;;;;;;;;5050629;28;20045;-66
2023/08/06 10:05:03;;;;;;;3.40;1.88;;;;;;;;;;5051056;28;20140;-66
2023/08/06 10:07:30;;;;;;;3.15;1.85;;;;;;;;;;5049312;28;20048;-66
2023/08/06 10:09:56;;;;;;;4.18;1.92;;;;;;;;;;5050969;28;20024;-67
2023/08/06 10:12:24;;;;;;;4.72;1.75;;;;;;;;;;5050783;28;20032;-66
2023/08/06 10:14:51;;;;;;;4.85;2.00;;;;;;;;;;5051542;28;20068;-66
2023/08/06 10:17:17;;;;;;;5.32;2.53;;;;;;;;;;5051504;28;20040;-67
2023/08/06 10:19:43;;;;;;;4.72;1.95;;;;;;;;;;5054471;28;20040;-66
2023/08/06 10:22:12;;;;;;;3.55;1.70;;;;;;;;;;5055111;28;21913;-66
2023/08/06 10:24:51;;;;;;;4.22;1.90;;;;;;;;;;5055126;28;21109;-67
2023/08/06 10:27:21;;;;;;;5.80;1.77;;;;;;;;;;5054900;28;20132;-66
2023/08/06 10:29:49;;;;;;;3.15;1.77;;;;;;;;;;5054851;28;21291;-66
2023/08/06 10:32:15;;;;;;;3.63;1.55;;;;;;;;;;5054688;28;20032;-67
2023/08/06 10:35:07;;;;;;;3.63;2.00;;;;;;;;;;5054416;28;20036;-66
2023/08/06 10:37:37;;;;;;;4.32;2.17;;;;;;;;;;5051754;28;20156;-66
2023/08/06 10:40:03;;;;;;;5.22;2.00;;;;;;;;;;5054944;28;20024;-66
2023/08/06 10:42:30;;;;;;;4.95;2.00;;;;;;;;;;5054338;28;20029;-66
2023/08/06 10:45:15;;;;;;;4.72;1.60;;;;;;;;;;5054274;28;20028;-66
2023/08/06 10:47:42;;;;;;;4.00;1.80;;;;;;;;;;5054390;28;20081;-66
2023/08/06 10:50:11;;;;;;;5.28;1.70;;;;;;;;;;5054041;28;20032;-66
2023/08/06 10:52:37;;;;;;;4.68;1.70;;;;;;;;;;5054316;28;21823;-66
2023/08/06 10:55:03;;;;;;;4.43;1.40;;;;;;;;;;5054933;28;20062;-66
2023/08/06 10:57:29;;;;;;;4.28;1.77;;;;;;;;;;5053865;28;20616;-66
2023/08/06 10:59:55;;;;;;;4.00;1.75;;;;;;;;;;5035907;28;20029;-66
2023/08/06 11:02:22;;;;;;;3.78;1.83;;;;;;;;;;5055610;28;20036;-66
2023/08/06 11:04:48;;;;;;;4.40;2.10;;;;;;;;;;5054170;28;21057;-66
2023/08/06 11:07:14;;;;;;;4.18;2.30;;;;;;;;;;5054187;28;20032;-66
2023/08/06 11:09:41;;;;;;;4.45;2.05;;;;;;;;;;5035216;28;20028;-66
2023/08/06 11:12:10;;;;;;;3.53;1.73;;;;;;;;;;5053649;28;20211;-66
2023/08/06 11:14:36;;;;;;;5.10;2.42;;;;;;;;;;5053394;28;20039;-67
2023/08/06 11:17:02;;;;;;;4.53;1.50;;;;;;;;;;5054091;28;20068;-66
2023/08/06 11:19:29;;;;;;;3.88;1.70;;;;;;;;;;5054858;28;20033;-66
2023/08/06 11:21:55;;;;;;;3.80;2.15;;;;;;;;;;5053325;28;20036;-66
2023/08/06 11:24:21;;;;;;;4.35;1.80;;;;;;;;;;5053958;28;20033;-66
2023/08/06 11:26:47;;;;;;;4.75;2.00;;;;;;;;;;5052795;28;20039;-67
2023/08/06 11:29:15;;;;;;;3.63;1.50;;;;;;;;;;5052635;28;20062;-66
2023/08/06 11:31:41;;;;;;;3.25;1.42;;;;;;;;;;5054222;28;20048;-66
2023/08/06 11:34:08;;;;;;;3.08;1.60;;;;;;;;;;5053675;28;20444;-67
2023/08/06 11:36:36;;;;;;;3.85;1.77;;;;;;;;;;5054283;28;20123;-66
2023/08/06 11:39:06;;;;;;;4.57;2.00;;;;;;;;;;5052421;28;20027;-67
2023/08/06 11:41:33;;;;;;;4.53;1.98;;;;;;;;;;5052443;28;20028;-66
2023/08/06 11:43:59;;;;;;;4.18;1.70;;;;;;;;;;5050825;28;21826;-67
2023/08/06 11:46:25;;;;;;;3.10;1.55;;;;;;;;;;5052060;28;20056;-66
2023/08/06 11:48:52;;;;;;;3.90;1.98;;;;;;;;;;5051922;28;20051;-66
2023/08/06 11:51:20;;;;;;;3.92;1.85;;;;;;;;;;5051066;28;20033;-67
2023/08/06 11:53:50;;;;;;;6.18;2.00;;;;;;;;;;5051284;28;20031;-66
2023/08/06 11:56:16;;;;;;;4.15;1.67;;;;;;;;;;5052635;28;20047;-67
2023/08/06 11:58:43;;;;;;;3.28;1.52;;;;;;;;;;5052796;28;20028;-66
2023/08/06 12:01:09;;;;;;;4.80;1.90;;;;;;;;;;5053226;28;20117;-66
2023/08/06 12:03:40;;;;;;;3.38;1.52;;;;;;;;;;5052971;28;20514;-67
2023/08/06 12:06:07;;;;;;;3.38;1.70;;;;;;;;;;5053345;28;20051;-67
2023/08/06 12:08:33;;;;;;;4.55;1.80;;;;;;;;;;5052286;28;20020;-66
2023/08/06 12:10:59;;;;;;;3.58;1.63;;;;;;;;;;5052479;28;20916;-66
2023/08/06 12:13:25;;;;;;;3.00;1.50;;;;;;;;;;5051542;28;20036;-67
2023/08/06 12:15:53;;;;;;;4.35;1.90;;;;;;;;;;5052080;28;20025;-66
2023/08/06 12:18:19;;;;;;;4.07;1.90;;;;;;;;;;5052758;28;21062;-66
2023/08/06 12:20:45;;;;;;;3.25;1.50;;;;;;;;;;5052644;28;20054;-66
2023/08/06 12:23:15;;;;;;;3.92;1.67;;;;;;;;;;5053035;28;20036;-66
2023/08/06 12:25:41;;;;;;;3.65;1.30;;;;;;;;;;5034266;28;20155;-66
2023/08/06 12:28:09;;;;;;;4.40;1.58;;;;;;;;;;5052583;28;21791;-66
2023/08/06 12:30:35;;;;;;;4.13;1.90;;;;;;;;;;5052105;28;20036;-66
2023/08/06 12:33:01;;;;;;;3.88;1.75;;;;;;;;;;5051533;28;20043;-66
2023/08/06 12:35:27;;;;;;;3.80;1.60;;;;;;;;;;5053281;28;20660;-66
2023/08/06 12:37:54;;;;;;;4.55;1.70;;;;;;;;;;5051696;28;20753;-66
2023/08/06 12:40:21;;;;;;;4.18;1.50;;;;;;;;;;5052219;28;20032;-66
2023/08/06 12:42:47;;;;;;;3.80;1.60;;;;;;;;;;5051511;28;20036;-66
2023/08/06 12:45:14;;;;;;;4.10;1.90;;;;;;;;;;5050575;28;20078;-66
2023/08/06 12:47:41;;;;;;;3.78;1.75;;;;;;;;;;5051724;28;20661;-66
2023/08/06 12:50:07;;;;;;;3.95;1.58;;;;;;;;;;5052419;28;20520;-66
2023/08/06 12:52:33;;;;;;;4.32;1.90;;;;;;;;;;5050923;28;20075;-66
2023/08/06 12:54:59;;;;;;;3.47;1.50;;;;;;;;;;5051845;28;21799;-66
2023/08/06 12:57:27;;;;;;;3.17;1.48;;;;;;;;;;5033974;28;20775;-66
2023/08/06 12:59:53;;;;;;;3.60;1.60;;;;;;;;;;5051789;28;20135;-66
2023/08/06 13:02:19;;;;;;;3.15;1.40;;;;;;;;;;5051832;28;20043;-66
2023/08/06 13:04:46;;;;;;;5.57;1.52;;;;;;;;;;5050941;28;20053;-66
2023/08/06 13:07:12;;;;;;;3.17;1.75;;;;;;;;;;5052263;28;20740;-66
2023/08/06 13:09:39;;;;;;;3.75;1.60;;;;;;;;;;5052146;28;20469;-66
2023/08/06 13:12:05;;;;;;;3.10;1.58;;;;;;;;;;5051607;28;20024;-66
2023/08/06 13:14:31;;;;;;;3.75;1.55;;;;;;;;;;5052295;28;20043;-66
2023/08/06 13:16:58;;;;;;;3.95;1.80;;;;;;;;;;5050573;28;20040;-66
2023/08/06 13:19:24;;;;;;;3.25;1.70;;;;;;;;;;5051102;28;20129;-66
2023/08/06 13:21:50;;;;;;;4.13;2.17;;;;;;;;;;5051216;28;20032;-66
2023/08/06 13:24:16;;;;;;;4.20;1.50;;;;;;;;;;5048639;28;20032;-66
2023/08/06 13:26:42;;;;;;;3.15;1.40;;;;;;;;;;5037853;28;20044;-66
2023/08/06 13:29:08;;;;;;;2.78;1.52;;;;;;;;;;5051429;28;20041;-66
2023/08/06 13:31:34;;;;;;;5.03;1.70;;;;;;;;;;5051890;28;20062;-66
2023/08/06 13:34:00;;;;;;;3.17;1.55;;;;;;;;;;5051531;28;21005;-66
2023/08/06 13:36:26;;;;;;;2.40;1.23;;;;;;;;;;5051748;28;20086;-66
2023/08/06 13:38:52;;;;;;;4.70;1.80;;;;;;;;;;5051162;28;20159;-66
2023/08/06 13:41:19;;;;;;;4.68;1.67;;;;;;;;;;5051145;28;20028;-65
2023/08/06 13:43:45;;;;;;;2.95;1.50;;;;;;;;;;5051237;28;20028;-66
2023/08/06 13:46:19;;;;;;;4.95;1.90;;;;;;;;;;5032157;28;20032;-66
2023/08/06 13:48:45;;;;;;;4.07;1.60;;;;;;;;;;5051605;28;20025;-66
2023/08/06 13:51:12;;;;;;;3.15;1.30;;;;;;;;;;5050782;28;20029;-66
2023/08/06 13:53:39;;;;;;;5.03;1.60;;;;;;;;;;5050306;28;20082;-66
2023/08/06 13:56:06;;;;;;;3.78;1.50;;;;;;;;;;5051306;28;20510;-66
2023/08/06 13:58:32;;;;;;;3.72;1.50;;;;;;;;;;5049879;28;20066;-66
2023/08/06 14:00:58;;;;;;;2.92;1.58;;;;;;;;;;5051058;28;20124;-66
2023/08/06 14:03:24;;;;;;;3.75;1.30;;;;;;;;;;5050122;28;20020;-66
2023/08/06 14:05:51;;;;;;;3.28;1.52;;;;;;;;;;5051756;28;20438;-66
2023/08/06 14:08:20;;;;;;;2.03;1.27;;;;;;;;;;5049921;28;20036;-66
2023/08/06 14:10:46;;;;;;;2.05;1.30;;;;;;;;;;5051155;28;20036;-66
2023/08/06 14:13:12;;;;;;;2.45;1.30;;;;;;;;;;5051083;28;21266;-66
2023/08/06 14:15:41;;;;;;;2.92;1.33;;;;;;;;;;5051452;28;20094;-66
2023/08/06 14:18:08;;;;;;;2.95;1.40;;;;;;;;;;5047577;28;20033;-66
2023/08/06 14:20:34;;;;;;;3.45;1.52;;;;;;;;;;5047482;28;20028;-66
2023/08/06 14:23:01;;;;;;;6.13;1.50;;;;;;;;;;5048938;28;20029;-66
2023/08/06 14:25:27;;;;;;;4.75;2.00;;;;;;;;;;5049353;28;20982;-66
2023/08/06 14:27:53;;;;;;;3.65;1.70;;;;;;;;;;5049720;28;20048;-66
2023/08/06 14:30:19;;;;;;;4.53;1.70;;;;;;;;;;5049090;28;20443;-66
2023/08/06 14:32:45;;;;;;;3.78;1.52;;;;;;;;;;5050356;28;20043;-66
2023/08/06 14:35:11;;;;;;;3.05;1.60;;;;;;;;;;5048885;28;20063;-66
2023/08/06 14:37:39;;;;;;;4.18;1.58;;;;;;;;;;5035819;28;20043;-66
2023/08/06 14:40:05;;;;;;;3.63;1.63;;;;;;;;;;5032552;28;20127;-66